createdAt,value
2019-04-11T00:01:02.260Z,3.60
2019-04-11T00:03:33.456Z,3.50
2019-04-11T00:06:03.689Z,3.60
2019-04-11T00:08:34.147Z,3.60
2019-04-11T00:11:05.919Z,3.50
2019-04-11T00:13:41.804Z,3.50
2019-04-11T00:16:13.110Z,3.40
2019-04-11T00:18:45.011Z,3.40
2019-04-11T00:21:16.987Z,3.50
2019-04-11T00:23:48.234Z,3.40
2019-04-11T00:26:18.440Z,3.30
2019-04-11T00:28:48.564Z,3.30
2019-04-11T00:31:19.617Z,3.30
2019-04-11T00:33:52.752Z,3.20
2019-04-11T00:36:25.868Z,3.20
2019-04-11T00:38:55.940Z,3.10
2019-04-11T00:41:26.059Z,3.10
2019-04-11T00:43:56.710Z,3.10
2019-04-11T00:46:26.808Z,3.10
2019-04-11T00:48:59.811Z,3.00
2019-04-11T00:51:29.917Z,2.80
2019-04-11T00:54:00.939Z,2.70
2019-04-11T00:56:31.029Z,2.70
2019-04-11T00:59:02.364Z,2.60
2019-04-11T01:01:33.710Z,2.60
2019-04-11T01:04:03.808Z,2.50
2019-04-11T01:06:34.904Z,2.50
2019-04-11T01:09:08.275Z,2.50
2019-04-11T01:11:40.387Z,2.50
2019-04-11T01:14:10.480Z,2.50
2019-04-11T01:16:43.025Z,2.40
2019-04-11T01:19:14.190Z,2.50
2019-04-11T01:21:45.507Z,2.40
2019-04-11T01:24:15.720Z,2.30
2019-04-11T01:26:45.776Z,2.20
2019-04-11T01:29:18.064Z,2.10
2019-04-11T01:31:49.836Z,2.20
2019-04-11T01:34:22.774Z,2.10
2019-04-11T01:36:53.812Z,2.10
2019-04-11T01:39:41.225Z,2.20
2019-04-11T01:42:13.219Z,2.10
2019-04-11T01:44:46.002Z,2.00
2019-04-11T01:47:21.282Z,2.00
2019-04-11T01:49:53.288Z,2.00
2019-04-11T01:52:24.465Z,2.10
2019-04-11T01:54:54.548Z,2.00
2019-04-11T01:57:40.256Z,1.90
2019-04-11T02:00:14.248Z,1.70
2019-04-11T02:02:54.835Z,1.60
2019-04-11T02:05:29.657Z,1.40
2019-04-11T02:08:00.825Z,1.50
2019-04-11T02:10:32.835Z,1.40
2019-04-11T02:13:03.980Z,1.30
2019-04-11T02:15:34.544Z,1.30
2019-04-11T02:18:05.431Z,1.20
2019-04-11T02:20:36.814Z,1.10
2019-04-11T02:23:24.992Z,1.10
2019-04-11T02:25:56.720Z,1.20
2019-04-11T02:28:26.844Z,1.20
2019-04-11T02:30:57.601Z,1.10
2019-04-11T02:33:27.794Z,1.20
2019-04-11T02:35:58.107Z,1.30
2019-04-11T02:38:30.505Z,1.30
2019-04-11T02:41:01.215Z,1.30
2019-04-11T02:43:31.988Z,1.20
2019-04-11T02:46:11.717Z,1.20
2019-04-11T02:48:36.126Z,1.20
2019-04-11T02:51:07.840Z,1.10
2019-04-11T02:53:45.085Z,1.00
2019-04-11T02:56:17.388Z,1.00
2019-04-11T02:58:48.356Z,1.10
2019-04-11T03:01:20.155Z,1.20
2019-04-11T03:03:51.984Z,1.10
2019-04-11T03:06:31.035Z,1.00
2019-04-11T03:09:02.483Z,1.00
2019-04-11T03:11:34.682Z,1.10
2019-04-11T03:14:07.634Z,1.20
2019-04-11T03:16:53.648Z,1.10
2019-04-11T03:19:28.532Z,1.00
2019-04-11T03:21:46.405Z,0.80
2019-04-11T03:24:17.685Z,0.90
2019-04-11T03:26:49.736Z,0.80
2019-04-11T03:29:20.388Z,0.80
2019-04-11T03:32:32.171Z,0.80
2019-04-11T03:35:12.165Z,0.70
2019-04-11T03:39:52.906Z,0.70
2019-04-11T03:42:16.921Z,0.70
2019-04-11T03:44:39.459Z,0.70
2019-04-11T03:47:18.195Z,0.80
2019-04-11T03:49:49.121Z,0.70
2019-04-11T03:52:12.751Z,0.60
2019-04-11T03:54:43.022Z,0.60
2019-04-11T03:57:13.530Z,0.60
2019-04-11T03:59:45.813Z,0.50
2019-04-11T04:02:22.516Z,0.40
2019-04-11T04:04:57.254Z,0.40
2019-04-11T04:07:27.787Z,0.60
2019-04-11T04:10:06.978Z,0.70
2019-04-11T04:12:37.815Z,0.60
2019-04-11T04:15:37.591Z,0.60
2019-04-11T04:17:55.198Z,0.80
2019-04-11T04:20:28.879Z,0.70
2019-04-11T04:23:05.165Z,0.60
2019-04-11T04:25:36.835Z,0.60
2019-04-11T04:28:10.129Z,0.60
2019-04-11T04:30:41.093Z,0.50
2019-04-11T04:33:14.555Z,0.50
2019-04-11T04:35:47.642Z,0.50
2019-04-11T04:38:24.197Z,0.50
2019-04-11T04:41:13.583Z,0.50
2019-04-11T04:43:31.693Z,0.40
2019-04-11T04:46:20.390Z,0.40
2019-04-11T04:48:34.718Z,0.30
2019-04-11T04:51:08.960Z,0.20
2019-04-11T04:53:36.539Z,0.30
2019-04-11T04:56:16.726Z,0.40
2019-04-11T04:58:48.562Z,0.40
2019-04-11T05:01:21.736Z,0.40
2019-04-11T05:03:58.819Z,0.40
2019-04-11T05:06:36.495Z,0.30
2019-04-11T05:09:08.601Z,0.30
2019-04-11T05:11:40.679Z,0.40
2019-04-11T05:14:12.432Z,0.50
2019-04-11T05:16:44.029Z,0.60
2019-04-11T05:19:14.974Z,0.60
2019-04-11T05:21:46.212Z,0.60
2019-04-11T05:24:16.678Z,0.70
2019-04-11T05:26:48.065Z,0.80
2019-04-11T05:29:19.548Z,0.90
2019-04-11T05:31:51.685Z,1.00
2019-04-11T05:34:23.901Z,1.10
2019-04-11T05:36:55.457Z,1.20
2019-04-11T05:39:27.678Z,1.30
2019-04-11T05:41:58.745Z,1.40
2019-04-11T05:44:29.145Z,1.60
2019-04-11T05:47:02.606Z,1.70
2019-04-11T05:49:37.305Z,1.90
2019-04-11T05:52:08.098Z,2.00
2019-04-11T05:54:48.996Z,2.20
2019-04-11T05:57:23.803Z,2.40
2019-04-11T05:59:56.570Z,2.60
2019-04-11T06:02:35.533Z,2.70
2019-04-11T06:05:09.033Z,2.80
2019-04-11T06:07:48.996Z,2.90
2019-04-11T06:10:28.355Z,3.10
2019-04-11T06:13:06.161Z,3.20
2019-04-11T06:15:49.700Z,3.40
2019-04-11T06:18:44.735Z,3.50
2019-04-11T06:21:20.217Z,3.70
2019-04-11T06:23:59.329Z,3.80
2019-04-11T06:26:45.604Z,4.00
2019-04-11T06:29:25.905Z,4.20
2019-04-11T06:31:52.300Z,4.40
2019-04-11T06:34:26.573Z,4.60
2019-04-11T06:37:01.448Z,4.80
2019-04-11T06:39:36.104Z,5.00
2019-04-11T06:42:10.936Z,5.20
2019-04-11T06:44:50.418Z,5.20
2019-04-11T06:47:38.997Z,5.20
2019-04-11T06:50:15.456Z,5.20
2019-04-11T06:52:46.836Z,5.10
2019-04-11T06:55:37.045Z,5.00
2019-04-11T06:58:21.471Z,5.00
2019-04-11T07:00:53.584Z,5.00
2019-04-11T07:03:27.632Z,5.10
2019-04-11T07:06:08.409Z,5.20
2019-04-11T07:09:01.591Z,5.60
2019-04-11T07:11:43.265Z,6.00
2019-04-11T07:14:29.161Z,6.10
2019-04-11T07:17:18.894Z,6.00
2019-04-11T07:20:05.186Z,6.10
2019-04-11T07:23:03.740Z,6.40
2019-04-11T07:25:39.548Z,6.40
2019-04-11T07:28:23.457Z,6.60
2019-04-11T07:31:08.189Z,6.90
2019-04-11T07:34:08.856Z,7.20
2019-04-11T07:36:48.272Z,7.40
2019-04-11T07:39:26.697Z,7.50
2019-04-11T07:42:18.265Z,7.60
2019-04-11T07:44:57.604Z,7.60
2019-04-11T07:47:46.050Z,7.80
2019-04-11T07:50:23.145Z,8.00
2019-04-11T07:53:03.117Z,8.20
2019-04-11T07:55:34.404Z,8.40
2019-04-11T07:58:17.720Z,8.40
2019-04-11T08:00:59.541Z,8.30
2019-04-11T08:03:40.081Z,8.40
2019-04-11T08:06:13.316Z,8.50
2019-04-11T08:08:51.418Z,8.50
2019-04-11T08:11:25.459Z,8.90
2019-04-11T08:14:18.206Z,9.10
2019-04-11T08:17:07.251Z,9.40
2019-04-11T08:19:44.819Z,9.40
2019-04-11T08:22:31.410Z,9.50
2019-04-11T08:25:15.382Z,10.00
2019-04-11T08:27:59.260Z,10.40
2019-04-11T08:30:25.257Z,11.10
2019-04-11T08:33:00.320Z,11.40
2019-04-11T08:35:33.157Z,11.70
2019-04-11T08:38:10.171Z,12.00
2019-04-11T08:40:58.884Z,12.50
2019-04-11T08:43:37.396Z,12.60
2019-04-11T08:46:10.932Z,12.80
2019-04-11T08:48:44.035Z,13.40
2019-04-11T08:51:19.561Z,12.80
2019-04-11T08:54:10.070Z,12.90
2019-04-11T08:56:43.159Z,14.00
2019-04-11T08:59:30.206Z,14.50
2019-04-11T09:02:00.470Z,15.40
2019-04-11T09:04:32.406Z,15.40
2019-04-11T09:07:03.280Z,15.10
2019-04-11T09:09:40.039Z,14.70
2019-04-11T09:12:14.854Z,14.70
2019-04-11T09:15:00.312Z,14.50
2019-04-11T09:17:32.961Z,15.10
2019-04-11T09:20:25.797Z,15.20
2019-04-11T09:22:57.549Z,14.70
2019-04-11T09:25:41.222Z,14.30
2019-04-11T09:28:15.597Z,14.30
2019-04-11T09:30:53.264Z,14.60
2019-04-11T09:33:41.450Z,15.00
2019-04-11T09:36:30.649Z,14.20
2019-04-11T09:39:06.622Z,14.30
2019-04-11T09:41:46.903Z,14.90
2019-04-11T09:44:18.629Z,16.80
2019-04-11T09:47:07.548Z,17.30
2019-04-11T09:49:40.254Z,18.00
2019-04-11T09:52:12.291Z,16.50
2019-04-11T09:54:54.954Z,16.40
2019-04-11T09:57:32.552Z,17.30
2019-04-11T10:00:16.454Z,17.50
2019-04-11T10:02:48.382Z,17.90
2019-04-11T10:05:22.238Z,17.40
2019-04-11T10:07:55.373Z,17.40
2019-04-11T10:10:33.203Z,17.40
2019-04-11T10:13:16.602Z,17.00
2019-04-11T10:16:04.962Z,17.00
2019-04-11T10:18:41.072Z,17.00
2019-04-11T10:21:15.198Z,17.20
2019-04-11T10:23:49.292Z,18.00
2019-04-11T10:26:20.373Z,18.70
2019-04-11T10:28:58.784Z,20.70
2019-04-11T10:31:30.643Z,20.00
2019-04-11T10:34:21.843Z,19.20
2019-04-11T10:36:53.756Z,18.50
2019-04-11T10:39:35.543Z,18.00
2019-04-11T10:42:10.616Z,18.90
2019-04-11T10:45:04.942Z,18.50
2019-04-11T10:47:38.734Z,18.00
2019-04-11T10:50:21.706Z,18.70
2019-04-11T10:52:55.114Z,18.70
2019-04-11T10:55:42.477Z,17.40
2019-04-11T10:58:20.789Z,17.30
2019-04-11T11:00:55.685Z,18.90
2019-04-11T11:03:29.061Z,18.80
2019-04-11T11:06:03.115Z,20.50
2019-04-11T11:08:37.648Z,21.40
2019-04-11T11:11:14.823Z,22.60
2019-04-11T11:14:02.545Z,20.40
2019-04-11T11:16:46.992Z,20.10
2019-04-11T11:19:45.691Z,19.90
2019-04-11T11:22:14.633Z,19.20
2019-04-11T11:24:52.451Z,18.00
2019-04-11T11:27:24.422Z,17.70
2019-04-11T11:30:13.359Z,17.10
2019-04-11T11:32:45.368Z,17.10
2019-04-11T11:35:17.177Z,16.60
2019-04-11T11:37:51.929Z,16.20
2019-04-11T11:40:25.917Z,16.60
2019-04-11T11:43:03.745Z,16.70
2019-04-11T11:45:47.915Z,16.40
2019-04-11T11:48:33.331Z,16.50
2019-04-11T11:51:05.488Z,16.10
2019-04-11T11:53:55.328Z,15.80
2019-04-11T11:56:26.337Z,16.80
2019-04-11T11:59:13.862Z,16.00
2019-04-11T12:01:50.935Z,15.20
2019-04-11T12:04:39.334Z,15.60
2019-04-11T12:07:16.785Z,15.50
2019-04-11T12:09:48.932Z,15.20
2019-04-11T12:12:23.865Z,14.90
2019-04-11T12:15:15.941Z,14.90
2019-04-11T12:17:55.969Z,14.80
2019-04-11T12:20:31.646Z,14.40
2019-04-11T12:23:04.641Z,14.20
2019-04-11T12:25:41.179Z,14.20
2019-04-11T12:28:15.644Z,14.20
2019-04-11T12:30:48.387Z,14.10
2019-04-11T12:33:35.365Z,14.40
2019-04-11T12:36:07.688Z,14.50
2019-04-11T12:38:55.973Z,14.50
2019-04-11T12:41:51.161Z,14.60
2019-04-11T12:44:26.716Z,14.00
2019-04-11T12:47:07.592Z,13.70
2019-04-11T12:49:37.588Z,14.30
2019-04-11T12:52:25.474Z,14.80
2019-04-11T12:55:04.148Z,15.00
2019-04-11T12:58:00.000Z,14.90
2019-04-11T13:00:47.590Z,15.00
2019-04-11T13:03:28.129Z,14.70
2019-04-11T13:06:22.482Z,14.80
2019-04-11T13:08:59.641Z,15.00
2019-04-11T13:11:31.430Z,14.80
2019-04-11T13:14:19.001Z,14.80
2019-04-11T13:17:10.265Z,14.50
2019-04-11T13:20:04.529Z,14.30
2019-04-11T13:22:35.785Z,14.40
2019-04-11T13:25:25.837Z,14.50
2019-04-11T13:27:57.564Z,14.60
2019-04-11T13:30:46.621Z,15.00
2019-04-11T13:33:19.281Z,15.30
2019-04-11T13:36:03.843Z,15.50
2019-04-11T13:38:36.505Z,15.10
2019-04-11T13:41:23.870Z,15.30
2019-04-11T13:43:55.354Z,15.50
2019-04-11T13:46:30.770Z,15.80
2019-04-11T13:49:05.175Z,15.60
2019-04-11T13:51:54.705Z,15.80
2019-04-11T13:54:40.624Z,16.00
2019-04-11T13:57:28.097Z,16.20
2019-04-11T14:00:15.806Z,16.10
2019-04-11T14:03:12.473Z,15.80
2019-04-11T14:05:50.609Z,16.10
2019-04-11T14:08:25.009Z,16.80
2019-04-11T14:11:02.386Z,16.50
2019-04-11T14:13:41.717Z,15.20
2019-04-11T14:16:20.161Z,14.80
2019-04-11T14:19:07.164Z,14.30
2019-04-11T14:21:37.381Z,14.00
2019-04-11T14:24:19.873Z,13.70
2019-04-11T14:27:01.285Z,13.40
2019-04-11T14:29:34.985Z,13.00
2019-04-11T14:32:16.177Z,13.10
2019-04-11T14:35:06.225Z,14.00
2019-04-11T14:37:38.848Z,17.30
2019-04-11T14:40:26.478Z,20.90
2019-04-11T14:43:17.934Z,22.20
2019-04-11T14:45:53.331Z,23.20
2019-04-11T14:48:30.883Z,23.30
2019-04-11T14:51:02.885Z,21.40
2019-04-11T14:53:50.799Z,18.70
2019-04-11T14:56:27.175Z,16.80
2019-04-11T14:59:13.529Z,15.30
2019-04-11T15:01:45.365Z,14.50
2019-04-11T15:04:25.906Z,15.00
2019-04-11T15:07:00.465Z,16.60
2019-04-11T15:09:39.105Z,17.30
2019-04-11T15:12:24.270Z,16.10
2019-04-11T15:14:57.013Z,15.20
2019-04-11T15:17:32.433Z,14.20
2019-04-11T15:20:14.505Z,14.40
2019-04-11T15:22:46.225Z,15.10
2019-04-11T15:25:23.741Z,14.80
2019-04-11T15:27:55.468Z,14.30
2019-04-11T15:30:38.209Z,14.70
2019-04-11T15:33:26.873Z,15.80
2019-04-11T15:36:00.526Z,16.70
2019-04-11T15:38:47.441Z,16.60
2019-04-11T15:41:17.593Z,16.80
2019-04-11T15:44:06.913Z,17.20
2019-04-11T15:46:38.812Z,17.40
2019-04-11T15:49:32.311Z,17.40
2019-04-11T15:52:06.245Z,16.50
2019-04-11T15:54:39.455Z,15.00
2019-04-11T15:57:12.813Z,13.90
2019-04-11T16:00:02.985Z,13.10
2019-04-11T16:02:48.145Z,12.50
2019-04-11T16:05:22.577Z,12.10
2019-04-11T16:08:10.204Z,11.80
2019-04-11T16:10:45.573Z,11.30
2019-04-11T16:13:33.409Z,10.80
2019-04-11T16:16:11.334Z,10.50
2019-04-11T16:18:56.310Z,10.70
2019-04-11T16:21:44.837Z,11.30
2019-04-11T16:24:17.537Z,11.90
2019-04-11T16:26:55.901Z,12.40
2019-04-11T16:29:29.557Z,12.00
2019-04-11T16:32:01.333Z,11.40
2019-04-11T16:34:48.248Z,10.90
2019-04-11T16:37:17.579Z,10.60
2019-04-11T16:39:54.828Z,10.50
2019-04-11T16:42:26.553Z,10.40
2019-04-11T16:45:17.225Z,10.30
2019-04-11T16:47:51.385Z,10.10
2019-04-11T16:50:21.477Z,9.90
2019-04-11T16:52:51.605Z,9.70
2019-04-11T16:55:22.637Z,9.50
2019-04-11T16:57:52.722Z,9.40
2019-04-11T17:00:27.607Z,9.20
2019-04-11T17:02:57.697Z,9.00
2019-04-11T17:05:27.811Z,8.80
2019-04-11T17:08:15.705Z,8.70
2019-04-11T17:10:57.517Z,8.50
2019-04-11T17:13:32.508Z,8.40
2019-04-11T17:16:14.448Z,8.30
2019-04-11T17:18:46.437Z,8.30
2019-04-11T17:21:18.521Z,8.20
2019-04-11T17:23:49.542Z,8.20
2019-04-11T17:26:22.978Z,8.10
2019-04-11T17:28:54.914Z,8.00
2019-04-11T17:31:25.987Z,7.90
2019-04-11T17:33:59.205Z,7.80
2019-04-11T17:36:30.714Z,7.60
2019-04-11T17:39:06.778Z,7.50
2019-04-11T17:41:36.415Z,7.50
2019-04-11T17:44:06.494Z,7.30
2019-04-11T17:46:41.041Z,7.30
2019-04-11T17:49:11.089Z,7.10
2019-04-11T17:51:55.743Z,7.00
2019-04-11T17:54:24.683Z,6.90
2019-04-11T17:56:58.728Z,6.80
2019-04-11T17:59:29.397Z,6.70
2019-04-11T18:01:59.489Z,6.60
2019-04-11T18:04:31.491Z,6.50
2019-04-11T18:07:02.533Z,6.40
2019-04-11T18:09:32.645Z,6.30
2019-04-11T18:12:03.706Z,6.20
2019-04-11T18:14:34.745Z,6.20
2019-04-11T18:17:06.014Z,6.10
2019-04-11T18:19:37.005Z,6.00
2019-04-11T18:22:13.546Z,5.90
2019-04-11T18:24:50.638Z,5.70
2019-04-11T18:27:27.561Z,5.60
2019-04-11T18:29:57.657Z,5.50
2019-04-11T18:32:29.861Z,5.50
2019-04-11T18:35:02.412Z,5.50
2019-04-11T18:37:33.457Z,5.40
2019-04-11T18:40:10.933Z,5.40
2019-04-11T18:42:41.025Z,5.30
2019-04-11T18:45:15.073Z,5.20
2019-04-11T18:47:46.257Z,5.20
2019-04-11T18:50:18.265Z,5.10
2019-04-11T18:52:50.415Z,5.00
2019-04-11T18:55:21.621Z,4.90
2019-04-11T18:57:51.747Z,4.90
2019-04-11T19:00:24.101Z,4.90
2019-04-11T19:02:59.944Z,4.80
2019-04-11T19:05:30.654Z,4.70
2019-04-11T19:08:01.759Z,4.60
2019-04-11T19:10:31.921Z,4.50
2019-04-11T19:13:02.041Z,4.40
2019-04-11T19:15:33.085Z,4.40
2019-04-11T19:18:06.792Z,4.30
2019-04-11T19:20:36.141Z,4.30
2019-04-11T19:23:08.057Z,4.30
2019-04-11T19:25:44.061Z,4.20
2019-04-11T19:28:10.429Z,4.20
2019-04-11T19:30:42.380Z,4.10
2019-04-11T19:33:13.228Z,4.10
2019-04-11T19:35:44.289Z,4.10
2019-04-11T19:38:22.802Z,4.00
2019-04-11T19:40:55.894Z,3.90
2019-04-11T19:43:27.937Z,3.80
2019-04-11T19:45:58.738Z,3.80
2019-04-11T19:48:28.901Z,3.70
2019-04-11T19:50:59.545Z,3.70
2019-04-11T19:53:32.779Z,3.50
2019-04-11T19:56:06.018Z,3.40
2019-04-11T19:58:47.182Z,3.30
2019-04-11T20:01:22.849Z,3.20
2019-04-11T20:03:56.966Z,3.10
2019-04-11T20:06:27.086Z,2.90
2019-04-11T20:08:58.115Z,2.80
2019-04-11T20:11:30.000Z,2.90
2019-04-11T20:14:07.720Z,2.80
2019-04-11T20:16:42.740Z,2.80
2019-04-11T20:19:10.818Z,2.80
2019-04-11T20:21:41.815Z,2.70
2019-04-11T20:24:14.419Z,2.70
2019-04-11T20:26:44.652Z,2.70
2019-04-11T20:29:15.194Z,2.70
2019-04-11T20:31:45.275Z,2.60
2019-04-11T20:34:27.363Z,2.50
2019-04-11T20:36:50.970Z,2.50
2019-04-11T20:39:21.061Z,2.40
2019-04-11T20:41:54.460Z,2.40
2019-04-11T20:44:33.218Z,2.40
2019-04-11T20:47:03.335Z,2.30
2019-04-11T20:49:36.974Z,2.30
2019-04-11T20:52:07.045Z,2.30
2019-04-11T20:54:38.488Z,2.20
2019-04-11T20:57:25.862Z,2.10
2019-04-11T20:59:55.790Z,2.10
2019-04-11T21:02:29.017Z,2.10
2019-04-11T21:05:00.934Z,2.10
2019-04-11T21:07:31.962Z,2.10
2019-04-11T21:10:04.155Z,2.10
2019-04-11T21:12:37.023Z,2.00
2019-04-11T21:15:09.850Z,2.00
2019-04-11T21:17:42.137Z,1.90
2019-04-11T21:20:12.486Z,1.90
2019-04-11T21:22:43.601Z,1.80
2019-04-11T21:25:28.573Z,1.90
2019-04-11T21:27:59.995Z,1.80
2019-04-11T21:30:37.203Z,1.70
2019-04-11T21:33:14.067Z,1.70
2019-04-11T21:35:44.159Z,1.60
2019-04-11T21:38:14.237Z,1.50
2019-04-11T21:40:45.271Z,1.50
2019-04-11T21:43:15.362Z,1.40
2019-04-11T21:45:45.533Z,1.40
2019-04-11T21:48:15.654Z,1.40
2019-04-11T21:50:47.759Z,1.40
2019-04-11T21:53:18.751Z,1.40
2019-04-11T21:55:50.843Z,1.40
2019-04-11T21:58:21.870Z,1.50
2019-04-11T22:01:02.264Z,1.40
2019-04-11T22:03:32.350Z,1.40
2019-04-11T22:06:02.418Z,1.30
2019-04-11T22:08:34.468Z,1.30
2019-04-11T22:11:12.181Z,1.20
2019-04-11T22:13:42.273Z,1.10
2019-04-11T22:16:14.265Z,1.10
2019-04-11T22:18:44.490Z,1.10
2019-04-11T22:21:15.557Z,1.00
2019-04-11T22:23:49.183Z,0.90
2019-04-11T22:26:22.341Z,0.80
2019-04-11T22:28:59.109Z,0.90
2019-04-11T22:31:30.215Z,1.00
2019-04-11T22:34:04.606Z,0.90
2019-04-11T22:36:34.687Z,0.90
2019-04-11T22:39:09.354Z,0.90
2019-04-11T22:41:43.090Z,1.00
2019-04-11T22:44:15.121Z,1.00
2019-04-11T22:46:45.213Z,1.00
2019-04-11T22:49:15.284Z,0.90
2019-04-11T22:51:56.397Z,0.90
2019-04-11T22:54:27.444Z,0.90
2019-04-11T22:56:58.497Z,0.90
2019-04-11T22:59:31.650Z,0.80
2019-04-11T23:02:10.405Z,0.80
2019-04-11T23:04:42.493Z,0.80
2019-04-11T23:07:15.058Z,0.80
2019-04-11T23:09:48.590Z,0.80
2019-04-11T23:12:21.114Z,0.70
2019-04-11T23:14:53.214Z,0.70
2019-04-11T23:17:24.213Z,0.70
2019-04-11T23:19:54.490Z,0.70
2019-04-11T23:22:24.537Z,0.60
2019-04-11T23:24:55.601Z,0.60
2019-04-11T23:27:27.696Z,0.60
2019-04-11T23:29:57.805Z,0.60
2019-04-11T23:32:33.649Z,0.60
2019-04-11T23:35:05.470Z,0.50
2019-04-11T23:37:51.179Z,0.50
2019-04-11T23:40:23.934Z,0.50
2019-04-11T23:42:55.017Z,0.60
2019-04-11T23:45:26.979Z,0.60
2019-04-11T23:47:58.001Z,0.60
2019-04-11T23:50:28.079Z,0.50
2019-04-11T23:53:07.601Z,0.50
2019-04-11T23:55:37.693Z,0.40
2019-04-11T23:58:15.470Z,0.40
